Maykop, Russia
Current Conditions -  °F | °C
As of 5:00 AM on Wednesday 22 Oct 2014 (Local Time) from URKK Reporting Station
Broken Clouds Broken Clouds  
Wind Chill: 59°   Ceiling: 10000
Heat Index: 59°   Visibility: 6mi
Dew Point: 46°   Wind: 11mph
Humidity: 63%   Direction: 240°WSW
Pressure: 29.8"   Gusts: 18mph
Location:  44.61°N, 40.11°E
Report Text: URKK 220200Z 24005G08MPS 9999 FEW050CB BKN100 15/08 Q1009 TEMPO20011G16MPS RMK QFE753 SC065
Loading
Personal Weather Stations






























Interactive Weather Map
Tropical Storm Tracking
New forecast layout! Learn more

10-Day Weather Forecast

Advertisements
Track Severe Weather on mobile